Time;durP1;ratioP1;P1;durP2;ratioP2;P2;SDS_P1;SDS_P2;PMS_P1;PMS_P2;Temp;Humidity;BMP_temperature;BMP_pressure;BME280_temperature;BME280_humidity;BME280_pressure;Samples;Min_cycle;Max_cycle;Signal;HPM_P1;HPM_P2
2022/09/22 00:00:58;;;;;;;0.57;0.28;;;9.30;99.90;;;;;;6160438;23;20021;-89
2022/09/22 00:03:24;;;;;;;0.80;0.40;;;9.30;99.90;;;;;;6160381;23;20053;-86
2022/09/22 00:06:02;;;;;;;0.20;0.20;;;9.30;99.90;;;;;;6185212;23;20074;-89
2022/09/22 00:08:36;;;;;;;0.80;0.38;;;9.40;99.90;;;;;;6212668;23;20108;-89
2022/09/22 00:11:20;;;;;;;0.95;0.40;;;9.30;99.90;;;;;;6160239;23;20066;-89
2022/09/22 00:13:52;;;;;;;1.10;0.50;;;9.30;99.90;;;;;;6160386;23;20342;-89
2022/09/22 00:16:24;;;;;;;2.40;0.30;;;9.30;99.90;;;;;;6160408;23;20075;-86
2022/09/22 00:18:50;;;;;;;0.47;0.30;;;9.30;99.90;;;;;;6160370;23;20020;-89
2022/09/22 00:21:19;;;;;;;0.90;0.50;;;9.30;99.90;;;;;;6160366;23;20016;-87
2022/09/22 00:23:48;;;;;;;1.52;0.43;;;9.30;99.90;;;;;;6290259;22;20024;-89
2022/09/22 00:26:20;;;;;;;1.08;0.50;;;9.20;99.90;;;;;;6160075;23;20091;-88
2022/09/22 00:28:47;;;;;;;1.60;0.68;;;9.20;99.90;;;;;;6185274;23;20017;-88
2022/09/22 00:31:19;;;;;;;0.90;0.50;;;9.20;99.90;;;;;;6160437;23;20024;-86
2022/09/22 00:33:45;;;;;;;0.65;0.47;;;9.20;99.90;;;;;;6160318;23;20020;-89
2022/09/22 00:36:12;;;;;;;1.70;0.70;;;9.20;99.90;;;;;;6160224;23;20017;-88
2022/09/22 00:38:39;;;;;;;0.98;0.52;;;9.20;99.90;;;;;;6160560;23;20444;-88
2022/09/22 00:41:07;;;;;;;0.80;0.50;;;9.30;99.90;;;;;;6160586;23;20361;-89
2022/09/22 00:43:35;;;;;;;1.17;0.60;;;9.30;99.90;;;;;;6185006;23;20015;-88
2022/09/22 00:46:15;;;;;;;1.88;0.80;;;9.30;99.90;;;;;;6160312;23;20028;-88
2022/09/22 00:48:50;;;;;;;1.23;0.47;;;9.30;99.90;;;;;;6211467;23;20453;-88
2022/09/22 00:51:19;;;;;;;1.38;0.50;;;9.30;99.90;;;;;;6185277;23;20028;-89
2022/09/22 00:53:47;;;;;;;1.48;0.55;;;9.30;99.90;;;;;;6160217;23;20143;-87
2022/09/22 00:56:22;;;;;;;1.10;0.45;;;9.30;99.90;;;;;;6292436;22;20071;-89
2022/09/22 00:58:53;;;;;;;0.60;0.38;;;9.20;99.90;;;;;;6161451;23;20040;-89
2022/09/22 01:01:19;;;;;;;1.85;0.77;;;9.20;99.90;;;;;;6161641;23;20088;-88
2022/09/22 01:03:46;;;;;;;0.95;0.60;;;9.20;99.90;;;;;;6212702;23;20095;-89
2022/09/22 01:06:17;;;;;;;1.40;0.60;;;9.20;99.90;;;;;;6161153;23;20468;-90
2022/09/22 01:08:44;;;;;;;1.00;0.50;;;9.10;99.90;;;;;;6186264;23;20020;-88
2022/09/22 01:11:13;;;;;;;0.82;0.50;;;9.00;99.90;;;;;;6161651;23;20024;-90
2022/09/22 01:14:06;;;;;;;1.52;0.55;;;9.10;99.90;;;;;;6185718;23;20017;-89
2022/09/22 01:16:34;;;;;;;1.40;0.55;;;9.10;99.90;;;;;;6186384;23;20048;-89
2022/09/22 01:19:15;;;;;;;1.70;0.60;;;9.10;99.90;;;;;;6161576;22;20100;-87
2022/09/22 01:21:56;;;;;;;1.33;0.50;;;9.10;99.90;;;;;;6161752;22;20027;-89
2022/09/22 01:24:55;;;;;;;0.98;0.40;;;9.10;99.90;;;;;;6186207;23;20437;-87
2022/09/22 01:27:47;;;;;;;0.90;0.50;;;9.10;99.90;;;;;;6212606;23;20028;-89
2022/09/22 01:30:16;;;;;;;0.90;0.50;;;9.10;99.90;;;;;;6161483;23;20017;-87
2022/09/22 01:32:46;;;;;;;3.90;0.68;;;9.10;99.90;;;;;;6161280;23;20027;-88
2022/09/22 01:35:38;;;;;;;1.10;0.52;;;9.10;99.90;;;;;;6212383;23;20062;-89
2022/09/22 01:38:21;;;;;;;1.73;0.80;;;9.20;99.90;;;;;;6177665;23;20023;-88
2022/09/22 01:41:15;;;;;;;2.92;0.77;;;9.10;99.90;;;;;;6160872;23;20475;-89
2022/09/22 01:43:53;;;;;;;2.60;1.17;;;9.00;99.90;;;;;;6181530;23;20017;-89
2022/09/22 01:46:53;;;;;;;1.95;0.95;;;9.00;99.90;;;;;;6185794;23;20016;-89
2022/09/22 01:49:21;;;;;;;2.30;0.90;;;9.00;99.90;;;;;;6161176;23;20024;-88
2022/09/22 01:51:52;;;;;;;3.85;1.15;;;9.00;99.90;;;;;;6164785;23;20027;-90
2022/09/22 01:54:36;;;;;;;1.55;0.90;;;8.90;99.90;;;;;;6213362;22;20012;-87
2022/09/22 01:57:17;;;;;;;2.25;1.00;;;8.90;99.90;;;;;;6167398;23;20017;-88
2022/09/22 01:59:46;;;;;;;2.05;1.10;;;8.90;99.90;;;;;;6161026;23;20020;-89
2022/09/22 02:02:26;;;;;;;2.30;1.20;;;8.90;99.90;;;;;;6212097;23;20453;-90
2022/09/22 02:04:57;;;;;;;2.33;1.30;;;8.90;99.90;;;;;;6185614;23;20021;-90
2022/09/22 02:07:29;;;;;;;4.00;1.45;;;8.90;99.90;;;;;;6185728;23;20069;-86
2022/09/22 02:09:58;;;;;;;3.35;1.08;;;8.80;99.90;;;;;;6160753;23;20023;-87
2022/09/22 02:12:24;;;;;;;2.25;1.05;;;8.90;99.90;;;;;;6160677;23;20068;-89
2022/09/22 02:14:50;;;;;;;3.20;1.27;;;8.80;99.90;;;;;;6212284;23;20032;-89
2022/09/22 02:17:16;;;;;;;2.70;1.20;;;8.80;99.90;;;;;;6136673;23;20024;-89
2022/09/22 02:19:42;;;;;;;2.80;1.30;;;8.80;99.90;;;;;;6160959;23;20016;-90
2022/09/22 02:22:10;;;;;;;3.90;1.30;;;8.80;99.90;;;;;;6161351;23;20149;-87
2022/09/22 02:24:42;;;;;;;2.17;1.13;;;8.80;99.90;;;;;;6160881;23;20024;-89
2022/09/22 02:27:19;;;;;;;2.85;1.20;;;8.80;99.90;;;;;;6192199;23;20005;-88
2022/09/22 02:29:56;;;;;;;4.00;1.50;;;8.90;99.90;;;;;;6198005;23;20345;-90
2022/09/22 02:32:23;;;;;;;2.85;1.40;;;8.90;99.90;;;;;;6185940;23;20016;-88
2022/09/22 02:34:49;;;;;;;3.03;1.20;;;8.90;99.90;;;;;;6161112;22;20442;-90
2022/09/22 02:37:38;;;;;;;4.23;1.23;;;9.00;99.90;;;;;;6161229;23;20055;-89
2022/09/22 02:40:31;;;;;;;2.55;1.45;;;8.90;99.90;;;;;;6185883;23;20266;-88
2022/09/22 02:43:36;;;;;;;3.20;1.45;;;8.90;99.90;;;;;;6160786;23;20013;-90
2022/09/22 02:46:14;;;;;;;2.85;1.13;;;8.90;99.90;;;;;;6189172;23;20016;-90
2022/09/22 02:48:46;;;;;;;2.08;1.00;;;8.80;99.90;;;;;;6158991;23;20016;-89
2022/09/22 02:51:14;;;;;;;2.08;0.98;;;8.80;99.90;;;;;;6211984;23;20017;-89
2022/09/22 02:53:39;;;;;;;1.67;0.70;;;8.70;99.90;;;;;;6186116;22;20498;-88
2022/09/22 02:56:05;;;;;;;1.33;0.63;;;8.60;99.90;;;;;;6185766;23;20020;-89
2022/09/22 02:58:31;;;;;;;2.13;0.83;;;8.60;99.90;;;;;;6161362;23;20017;-91
2022/09/22 03:00:57;;;;;;;2.30;0.80;;;8.50;99.90;;;;;;6212124;23;20024;-89
2022/09/22 03:03:23;;;;;;;0.98;0.50;;;8.50;99.90;;;;;;6161335;23;20027;-89
2022/09/22 03:05:48;;;;;;;2.07;0.70;;;8.40;99.90;;;;;;6212485;23;20505;-87
2022/09/22 03:08:14;;;;;;;1.53;0.80;;;8.30;99.90;;;;;;6161101;23;20021;-88
2022/09/22 03:10:40;;;;;;;2.03;0.90;;;8.30;99.90;;;;;;6160711;23;20357;-87
2022/09/22 03:13:06;;;;;;;2.22;0.90;;;8.20;99.90;;;;;;6185604;23;20017;-89
2022/09/22 03:15:32;;;;;;;2.10;0.77;;;8.20;99.90;;;;;;6185842;23;20059;-89
2022/09/22 03:17:58;;;;;;;2.53;0.93;;;8.20;99.90;;;;;;6160532;23;20023;-87
2022/09/22 03:20:23;;;;;;;2.70;0.80;;;8.10;99.90;;;;;;6185636;23;20016;-89
2022/09/22 03:22:49;;;;;;;1.93;0.70;;;8.10;99.90;;;;;;6136591;23;20149;-88
2022/09/22 03:25:15;;;;;;;1.50;0.70;;;8.10;99.90;;;;;;6185445;23;20017;-86
2022/09/22 03:27:41;;;;;;;2.60;0.90;;;8.10;99.90;;;;;;6136542;23;20054;-89
2022/09/22 03:30:08;;;;;;;2.57;0.80;;;8.00;99.90;;;;;;6185518;23;20012;-88
2022/09/22 03:32:34;;;;;;;2.15;0.77;;;8.10;99.90;;;;;;6185389;23;20020;-88
2022/09/22 03:35:00;;;;;;;1.52;0.68;;;8.10;99.90;;;;;;6160712;23;20085;-87
2022/09/22 03:37:26;;;;;;;1.60;0.50;;;8.00;99.90;;;;;;6160608;23;20092;-87
2022/09/22 03:39:52;;;;;;;1.90;0.98;;;8.00;99.90;;;;;;6160839;23;20122;-89
2022/09/22 03:42:18;;;;;;;1.33;0.70;;;8.00;99.90;;;;;;6160806;23;20048;-89
2022/09/22 03:44:44;;;;;;;1.63;0.53;;;7.90;99.90;;;;;;6185725;23;20025;-88
2022/09/22 03:47:09;;;;;;;3.37;0.90;;;7.90;99.90;;;;;;6160480;22;20275;-88
2022/09/22 03:49:35;;;;;;;1.17;0.70;;;7.80;99.90;;;;;;6185082;23;20020;-87
2022/09/22 03:52:01;;;;;;;1.53;0.67;;;7.80;99.90;;;;;;6162698;23;20025;-90
2022/09/22 03:54:27;;;;;;;2.58;0.90;;;7.80;99.90;;;;;;6229661;22;20032;-88
2022/09/22 03:56:53;;;;;;;1.23;0.63;;;7.80;99.90;;;;;;6200030;23;20016;-88
2022/09/22 03:59:19;;;;;;;2.17;0.77;;;7.70;99.90;;;;;;6185044;23;20027;-88
2022/09/22 04:01:44;;;;;;;1.23;0.70;;;7.70;99.90;;;;;;6160318;23;20017;-86
2022/09/22 04:04:10;;;;;;;1.50;0.80;;;7.60;99.90;;;;;;6160509;23;20044;-86
2022/09/22 04:06:37;;;;;;;1.70;0.60;;;7.60;99.90;;;;;;6211774;22;20043;-88
2022/09/22 04:09:04;;;;;;;6.18;1.10;;;7.60;99.90;;;;;;6184735;23;20027;-87
2022/09/22 04:11:30;;;;;;;;;;;7.50;99.90;;;;;;6186077;23;20028;-89
2022/09/22 04:13:56;;;;;;;1.10;0.60;;;7.50;99.90;;;;;;6160446;23;20301;-87
2022/09/22 04:16:22;;;;;;;1.27;0.70;;;7.40;99.90;;;;;;6211604;23;20080;-86
2022/09/22 04:18:48;;;;;;;1.60;0.90;;;7.40;99.90;;;;;;6160355;23;20074;-88
2022/09/22 04:21:13;;;;;;;1.63;0.97;;;7.40;99.90;;;;;;6211459;23;20017;-89
2022/09/22 04:23:39;;;;;;;1.60;0.70;;;7.30;99.90;;;;;;6160614;23;20017;-89
2022/09/22 04:26:05;;;;;;;1.50;0.80;;;7.30;99.90;;;;;;6185305;23;20024;-87
2022/09/22 04:28:31;;;;;;;1.70;0.90;;;7.30;99.90;;;;;;6202834;22;20033;-90
2022/09/22 04:30:57;;;;;;;1.17;0.70;;;7.30;99.90;;;;;;6217504;23;20023;-89
2022/09/22 04:33:23;;;;;;;1.60;0.80;;;7.30;99.90;;;;;;6160562;23;20252;-90
2022/09/22 04:35:50;;;;;;;1.63;0.80;;;7.30;99.90;;;;;;6185355;23;20077;-89
2022/09/22 04:38:17;;;;;;;2.13;0.98;;;7.20;99.90;;;;;;6185363;23;20009;-89
2022/09/22 04:40:43;;;;;;;2.08;1.00;;;7.30;99.90;;;;;;6211528;23;20024;-89
2022/09/22 04:43:09;;;;;;;1.67;0.77;;;7.30;99.90;;;;;;6160356;23;20047;-90
2022/09/22 04:45:35;;;;;;;2.37;0.90;;;7.30;99.90;;;;;;6184857;23;20023;-88
2022/09/22 04:48:01;;;;;;;1.90;0.80;;;7.30;99.90;;;;;;6211405;23;20029;-89
2022/09/22 04:50:27;;;;;;;2.17;0.90;;;7.40;99.90;;;;;;6135860;23;20027;-90
2022/09/22 04:52:54;;;;;;;2.50;0.70;;;7.40;99.90;;;;;;6160135;23;20025;-90
2022/09/22 04:55:24;;;;;;;3.70;0.85;;;7.40;99.90;;;;;;6184883;23;20365;-89
2022/09/22 04:57:53;;;;;;;1.88;0.80;;;7.40;99.90;;;;;;6181915;23;20013;-87
2022/09/22 05:00:20;;;;;;;1.10;0.52;;;7.30;99.90;;;;;;6160128;23;20016;-88
2022/09/22 05:02:46;;;;;;;1.65;0.90;;;7.30;99.90;;;;;;6160126;23;20092;-89
2022/09/22 05:05:12;;;;;;;2.95;1.05;;;7.20;99.90;;;;;;6184942;23;20024;-89
2022/09/22 05:07:46;;;;;;;1.52;0.90;;;7.20;99.90;;;;;;6185178;23;20020;-88
2022/09/22 05:10:13;;;;;;;1.83;0.80;;;7.20;99.90;;;;;;6179616;23;20025;-88
2022/09/22 05:12:40;;;;;;;1.85;0.82;;;7.10;99.90;;;;;;6153542;23;20297;-85
2022/09/22 05:15:07;;;;;;;2.55;0.70;;;7.20;99.90;;;;;;6143081;23;20013;-88
2022/09/22 05:17:34;;;;;;;2.05;0.80;;;7.20;99.90;;;;;;6154989;23;20021;-87
2022/09/22 05:20:04;;;;;;;2.00;0.70;;;7.10;99.90;;;;;;6183734;23;20584;-89
2022/09/22 05:22:30;;;;;;;2.08;0.90;;;7.10;99.90;;;;;;6160167;23;20075;-89
2022/09/22 05:24:56;;;;;;;1.93;0.80;;;7.10;99.90;;;;;;6159493;23;20315;-89
2022/09/22 05:27:22;;;;;;;2.47;1.13;;;7.10;99.90;;;;;;6210778;23;20341;-88
2022/09/22 05:29:48;;;;;;;1.83;0.70;;;7.00;99.90;;;;;;6160018;22;20017;-89
2022/09/22 05:32:13;;;;;;;1.93;1.00;;;7.00;99.90;;;;;;6184512;23;20020;-89
2022/09/22 05:34:45;;;;;;;1.40;0.83;;;7.00;99.90;;;;;;6159782;23;20108;-85
2022/09/22 05:37:10;;;;;;;1.70;0.70;;;7.10;99.90;;;;;;6158801;23;20024;-85
2022/09/22 05:39:36;;;;;;;1.13;0.73;;;7.10;99.90;;;;;;6159249;23;20013;-87
2022/09/22 05:42:02;;;;;;;1.97;1.07;;;7.00;99.90;;;;;;6135967;23;20099;-85
2022/09/22 05:44:27;;;;;;;1.60;0.83;;;7.10;99.90;;;;;;6136064;23;20104;-84
2022/09/22 05:46:53;;;;;;;2.00;0.80;;;7.10;99.90;;;;;;6160582;23;20020;-85
2022/09/22 05:49:24;;;;;;;2.50;0.87;;;7.10;99.90;;;;;;6136009;23;20103;-86
2022/09/22 05:52:21;;;;;;;1.42;0.70;;;7.20;99.90;;;;;;6163253;23;20027;-86
2022/09/22 05:54:47;;;;;;;1.20;0.45;;;7.20;99.90;;;;;;6171126;23;20016;-86
2022/09/22 05:57:13;;;;;;;1.37;0.63;;;7.20;99.90;;;;;;6165447;23;20100;-89
2022/09/22 05:59:39;;;;;;;1.38;0.77;;;7.20;99.90;;;;;;6136451;23;20500;-87
2022/09/22 06:02:07;;;;;;;1.83;0.87;;;7.30;99.90;;;;;;6161298;23;20016;-89
2022/09/22 06:04:33;;;;;;;1.52;0.85;;;7.40;99.90;;;;;;6186044;23;20016;-91
2022/09/22 06:06:59;;;;;;;2.05;0.93;;;7.40;99.90;;;;;;6160823;23;20024;-88
2022/09/22 06:09:25;;;;;;;2.60;1.00;;;7.50;99.90;;;;;;6184577;22;20013;-87
2022/09/22 06:11:50;;;;;;;1.90;0.90;;;7.50;99.90;;;;;;6159724;23;20029;-87
2022/09/22 06:14:17;;;;;;;;;;;7.60;99.90;;;;;;6160487;23;20396;-87
2022/09/22 06:16:43;;;;;;;2.08;0.98;;;7.70;99.90;;;;;;6159317;22;20207;-88
2022/09/22 06:19:09;;;;;;;2.10;0.90;;;7.70;99.90;;;;;;6183902;23;20099;-89
2022/09/22 06:21:34;;;;;;;1.67;0.80;;;7.80;99.90;;;;;;6160101;23;20096;-89
2022/09/22 06:24:00;;;;;;;2.57;0.93;;;7.80;99.90;;;;;;6184544;23;20024;-88
2022/09/22 06:26:26;;;;;;;3.07;0.97;;;7.90;99.90;;;;;;6183098;23;20017;-88
2022/09/22 06:28:52;;;;;;;2.47;1.20;;;7.90;99.90;;;;;;6162693;23;20040;-88
2022/09/22 06:31:17;;;;;;;2.13;1.00;;;8.00;99.90;;;;;;6160671;23;20100;-89
2022/09/22 06:33:47;;;;;;;2.33;1.10;;;8.10;99.90;;;;;;6160422;23;20016;-89
2022/09/22 06:36:19;;;;;;;1.98;0.88;;;8.20;99.90;;;;;;6161394;23;20237;-94
2022/09/22 06:38:45;;;;;;;5.38;1.30;;;8.20;99.90;;;;;;6159836;23;20073;-89
2022/09/22 06:41:10;;;;;;;1.80;0.93;;;8.40;99.90;;;;;;6184597;23;20013;-89
2022/09/22 06:43:36;;;;;;;4.10;1.00;;;8.40;99.90;;;;;;6136186;23;20017;-88
2022/09/22 06:46:05;;;;;;;2.40;1.00;;;8.60;99.90;;;;;;6161145;22;20073;-91
2022/09/22 06:48:31;;;;;;;2.95;1.20;;;8.60;99.90;;;;;;6136500;23;20032;-89
2022/09/22 06:50:56;;;;;;;4.00;1.00;;;8.70;99.90;;;;;;6111729;23;20025;-90
2022/09/22 06:53:23;;;;;;;3.00;1.50;;;8.70;99.90;;;;;;6185710;23;20017;-89
2022/09/22 06:55:49;;;;;;;3.67;1.52;;;8.90;99.90;;;;;;6161036;23;20020;-89
2022/09/22 06:58:15;;;;;;;3.87;1.90;;;9.00;99.90;;;;;;6160852;23;20046;-88
2022/09/22 07:00:42;;;;;;;;;;;9.10;99.90;;;;;;6161428;23;20027;-89
2022/09/22 07:03:13;;;;;;;8.95;2.75;;;9.10;99.90;;;;;;6161346;22;19923;-89
2022/09/22 07:05:38;;;;;;;5.18;2.47;;;9.20;99.90;;;;;;6185870;23;20013;-87
2022/09/22 07:08:04;;;;;;;5.50;2.50;;;9.30;99.90;;;;;;6185885;23;20017;-90
2022/09/22 07:10:36;;;;;;;4.82;2.30;;;9.40;99.90;;;;;;6160569;22;20048;-87
2022/09/22 07:13:04;;;;;;;6.03;2.95;;;9.40;99.90;;;;;;6212469;23;20330;-91
2022/09/22 07:15:31;;;;;;;6.00;2.88;;;9.50;99.90;;;;;;6185488;23;20441;-89
2022/09/22 07:17:57;;;;;;;5.57;2.75;;;9.50;99.90;;;;;;6161272;23;20024;-91
2022/09/22 07:20:23;;;;;;;5.20;2.60;;;9.60;99.90;;;;;;6161259;22;20025;-91
2022/09/22 07:22:49;;;;;;;3.73;2.10;;;9.70;99.90;;;;;;6185667;23;20017;-88
2022/09/22 07:25:15;;;;;;;6.00;2.60;;;9.70;99.90;;;;;;6161094;23;20052;-89
2022/09/22 07:27:41;;;;;;;5.10;2.37;;;9.70;99.90;;;;;;6160811;23;20021;-88
2022/09/22 07:30:09;;;;;;;5.22;2.72;;;9.80;99.90;;;;;;6186172;23;20024;-90
2022/09/22 07:32:34;;;;;;;4.57;2.00;;;9.80;99.90;;;;;;6161106;23;20353;-90
2022/09/22 07:35:03;;;;;;;6.15;2.40;;;9.90;99.90;;;;;;6161756;23;20019;-91
2022/09/22 07:37:32;;;;;;;4.45;2.13;;;9.90;99.90;;;;;;6112382;23;20052;-91
2022/09/22 07:39:59;;;;;;;6.97;2.38;;;9.90;99.90;;;;;;6160792;23;20016;-90
2022/09/22 07:42:25;;;;;;;5.50;2.83;;;10.00;99.90;;;;;;6159472;23;20040;-90
2022/09/22 07:50:21;;;;;;;4.10;2.22;;;10.10;99.90;;;;;;6190076;23;20031;-93
2022/09/22 07:52:51;;;;;;;5.18;2.78;;;10.20;99.90;;;;;;6163468;23;20096;-90
2022/09/22 07:55:20;;;;;;;5.03;2.38;;;10.20;99.90;;;;;;6176262;23;20028;-89
2022/09/22 07:57:58;;;;;;;4.95;2.38;;;10.30;99.90;;;;;;6164112;23;20021;-89
2022/09/22 08:00:26;;;;;;;5.93;2.60;;;10.30;99.90;;;;;;6160788;23;20024;-90
2022/09/22 08:02:56;;;;;;;4.95;2.60;;;10.40;99.90;;;;;;6160139;23;20027;-91
2022/09/22 08:05:24;;;;;;;5.18;2.88;;;10.40;99.90;;;;;;6161656;23;20013;-91
2022/09/22 08:07:49;;;;;;;5.50;2.65;;;10.50;99.90;;;;;;6160682;23;20020;-90
2022/09/22 08:10:16;;;;;;;4.80;2.42;;;10.50;99.90;;;;;;6160350;23;20077;-90
2022/09/22 08:12:43;;;;;;;5.03;2.45;;;10.60;99.90;;;;;;6160568;23;20091;-90
2022/09/22 08:15:09;;;;;;;8.23;2.67;;;10.60;99.90;;;;;;6160512;23;20019;-90
2022/09/22 08:17:36;;;;;;;;;;;10.70;99.90;;;;;;6160894;23;20350;-90
2022/09/22 08:20:03;;;;;;;5.63;2.70;;;10.70;99.90;;;;;;6184496;23;19912;-90
2022/09/22 08:22:29;;;;;;;5.88;2.50;;;10.80;99.90;;;;;;6160667;23;20390;-91
2022/09/22 08:24:55;;;;;;;5.38;2.38;;;10.90;99.90;;;;;;6160404;23;20055;-91
2022/09/22 08:27:21;;;;;;;5.40;2.30;;;11.00;99.90;;;;;;6163076;22;20071;-87
2022/09/22 08:29:47;;;;;;;4.22;2.17;;;11.00;99.90;;;;;;6172729;22;20021;-91
2022/09/22 08:32:17;;;;;;;4.60;2.30;;;11.10;99.90;;;;;;6137444;23;20016;-90
2022/09/22 08:34:44;;;;;;;5.50;2.20;;;11.20;99.90;;;;;;6160410;23;20020;-91
2022/09/22 08:37:12;;;;;;;4.35;1.73;;;11.20;99.90;;;;;;6160790;22;20104;-90
2022/09/22 08:39:38;;;;;;;6.13;2.40;;;11.30;99.90;;;;;;6160417;23;20039;-92
2022/09/22 08:42:18;;;;;;;4.60;2.40;;;11.40;99.90;;;;;;6160035;23;20017;-90
2022/09/22 08:44:59;;;;;;;5.53;2.53;;;11.40;99.90;;;;;;6185111;23;20020;-89
2022/09/22 08:53:32;;;;;;;4.32;2.20;;;11.60;99.90;;;;;;6184838;23;20060;-92
2022/09/22 08:56:10;;;;;;;5.55;2.28;;;11.70;99.90;;;;;;6160370;22;20013;-92
2022/09/22 08:59:02;;;;;;;5.45;2.20;;;11.80;99.90;;;;;;6160483;23;20024;-90
2022/09/22 09:01:51;;;;;;;4.07;2.35;;;11.80;99.90;;;;;;6160079;23;20147;-92
2022/09/22 09:04:44;;;;;;;6.32;2.15;;;11.90;99.90;;;;;;6160901;23;20463;-91
2022/09/22 09:07:42;;;;;;;6.20;1.90;;;11.90;99.90;;;;;;6160672;23;20453;-90
2022/09/22 09:10:16;;;;;;;4.85;1.88;;;12.00;99.90;;;;;;6160203;23;20060;-92
2022/09/22 09:13:01;;;;;;;4.25;1.63;;;12.10;99.90;;;;;;6160366;23;20051;-94
2022/09/22 09:15:47;;;;;;;5.80;1.98;;;12.20;99.90;;;;;;6185215;23;20096;-92
2022/09/22 09:18:17;;;;;;;4.82;2.13;;;12.20;99.90;;;;;;6161542;23;20046;-95
2022/09/22 09:20:50;;;;;;;3.53;1.60;;;12.30;99.90;;;;;;6161428;23;20025;-93
2022/09/22 09:23:47;;;;;;;3.97;1.38;;;12.30;99.90;;;;;;6137298;23;20013;-94
2022/09/22 09:26:14;;;;;;;4.13;1.90;;;12.40;99.90;;;;;;6161724;23;20023;-94
2022/09/22 09:28:45;;;;;;;2.80;1.25;;;12.50;99.90;;;;;;6137197;23;20023;-90
2022/09/22 09:31:27;;;;;;;3.83;2.03;;;12.60;99.90;;;;;;6186587;23;20096;-90
2022/09/22 09:34:14;;;;;;;4.13;1.67;;;12.70;99.90;;;;;;6161457;23;20450;-93
2022/09/22 09:36:44;;;;;;;5.40;1.70;;;12.70;99.90;;;;;;6161322;23;20091;-92
2022/09/22 09:39:33;;;;;;;4.47;1.55;;;12.80;99.90;;;;;;6161522;23;20020;-91
2022/09/22 09:42:01;;;;;;;4.43;1.90;;;12.90;99.90;;;;;;6161405;23;20012;-93
2022/09/22 09:44:38;;;;;;;4.57;1.50;;;13.10;99.90;;;;;;6161855;23;20021;-89
2022/09/22 09:47:04;;;;;;;;;;;13.10;99.90;;;;;;6161959;23;20027;-93
2022/09/22 09:49:30;;;;;;;3.45;1.42;;;13.20;99.90;;;;;;6161505;23;19940;-90
2022/09/22 09:51:59;;;;;;;5.95;1.90;;;13.30;99.90;;;;;;6162559;23;20047;-91
2022/09/22 09:54:26;;;;;;;2.65;1.20;;;13.40;99.90;;;;;;6197553;23;20008;-92
2022/09/22 09:57:17;;;;;;;2.50;1.17;;;13.50;99.90;;;;;;6204022;23;20013;-91
2022/09/22 10:02:38;;;;;;;5.10;1.20;;;13.70;99.90;;;;;;6185540;23;20063;-92
2022/09/22 10:05:26;;;;;;;2.65;1.13;;;13.80;99.90;;;;;;6161384;23;20388;-90
2022/09/22 10:08:22;;;;;;;;;;;14.00;99.90;;;;;;6161845;23;20449;-90
2022/09/22 10:10:53;;;;;;;1.33;0.50;;;14.00;99.90;;;;;;6187050;22;20384;-91
2022/09/22 10:13:25;;;;;;;2.55;0.70;;;14.20;99.90;;;;;;6161351;23;20344;-91
2022/09/22 10:16:22;;;;;;;2.55;0.52;;;14.40;99.90;;;;;;6212450;23;20020;-92
2022/09/22 10:18:50;;;;;;;1.90;0.70;;;14.50;99.90;;;;;;6161658;23;20340;-92
2022/09/22 10:21:20;;;;;;;1.15;0.63;;;14.60;99.90;;;;;;6159369;23;20021;-91
2022/09/22 10:23:47;;;;;;;2.78;0.75;;;14.80;99.90;;;;;;6159122;23;20020;-91
2022/09/22 10:26:29;;;;;;;1.20;0.50;;;14.80;99.90;;;;;;6159991;23;20095;-91
2022/09/22 10:29:18;;;;;;;1.60;0.40;;;15.00;99.90;;;;;;6174116;23;20024;-90
2022/09/22 10:32:19;;;;;;;0.70;0.30;;;15.10;99.90;;;;;;6164917;23;20021;-89
2022/09/22 10:34:48;;;;;;;1.92;0.60;;;15.30;99.90;;;;;;6192471;23;20107;-90
2022/09/22 10:37:17;;;;;;;3.03;0.82;;;15.40;99.90;;;;;;6167596;23;20015;-90
2022/09/22 10:39:49;;;;;;;1.80;0.60;;;15.50;99.90;;;;;;6160282;23;20412;-90
2022/09/22 10:42:42;;;;;;;1.77;0.60;;;15.60;99.90;;;;;;6158680;23;20020;-89
2022/09/22 10:45:14;;;;;;;1.90;0.63;;;15.80;99.90;;;;;;6136418;23;20020;-90
2022/09/22 10:47:50;;;;;;;1.33;0.60;;;15.80;99.90;;;;;;6161054;23;20017;-90
2022/09/22 10:50:26;;;;;;;1.58;0.60;;;15.90;99.90;;;;;;6160695;23;20020;-91
2022/09/22 10:53:34;;;;;;;1.98;0.82;;;16.00;99.90;;;;;;6185702;22;20020;-91
2022/09/22 10:56:32;;;;;;;2.10;1.00;;;16.20;99.90;;;;;;6160451;23;20013;-90
2022/09/22 10:59:26;;;;;;;3.42;0.90;;;16.30;99.90;;;;;;6160266;23;20044;-90
2022/09/22 11:02:13;;;;;;;3.03;0.90;;;16.40;99.90;;;;;;6160826;23;20327;-90
2022/09/22 11:12:15;;;;;;;2.95;1.00;;;16.30;99.90;;;;;;6160994;23;20017;-90
2022/09/22 11:14:31;;;;;;;2.50;0.82;;;16.30;99.90;;;;;;6218874;23;20016;-90
2022/09/22 11:17:31;;;;;;;1.80;0.68;;;16.20;99.90;;;;;;6162037;23;20017;-90
2022/09/22 11:20:31;;;;;;;2.72;0.70;;;16.20;99.90;;;;;;6140993;23;20020;-90
2022/09/22 11:23:34;;;;;;;2.13;0.60;;;16.10;99.90;;;;;;6162332;23;20501;-91
2022/09/22 11:26:18;;;;;;;1.67;0.57;;;16.10;99.90;;;;;;6160148;23;20016;-90
2022/09/22 11:29:05;;;;;;;1.80;0.50;;;16.00;99.90;;;;;;6160558;23;20095;-90
2022/09/22 11:32:00;;;;;;;2.40;0.40;;;16.00;99.90;;;;;;6160853;23;20099;-91
2022/09/22 11:35:06;;;;;;;3.17;0.80;;;15.90;99.90;;;;;;6163068;22;20021;-90
2022/09/22 11:37:39;;;;;;;1.92;0.60;;;15.90;99.90;;;;;;6159846;23;20024;-89
2022/09/22 11:40:21;;;;;;;1.00;0.43;;;16.00;99.90;;;;;;6160826;23;20052;-90
2022/09/22 11:43:15;;;;;;;1.30;0.57;;;16.00;99.90;;;;;;6160781;23;20040;-90
2022/09/22 11:45:59;;;;;;;3.20;0.80;;;16.30;99.90;;;;;;6160615;22;20025;-90
2022/09/22 11:48:53;;;;;;;2.60;0.90;;;16.60;99.90;;;;;;6290470;22;20020;-91
2022/09/22 11:52:01;;;;;;;2.50;0.70;;;16.70;99.90;;;;;;6160724;23;20017;-90
2022/09/22 11:54:54;;;;;;;1.73;0.77;;;16.70;99.90;;;;;;6165958;23;20054;-89
2022/09/22 11:57:24;;;;;;;2.28;0.90;;;16.50;99.90;;;;;;6176359;23;20021;-90
2022/09/22 12:00:01;;;;;;;2.25;0.80;;;16.40;99.90;;;;;;6185390;23;20099;-90
2022/09/22 12:02:57;;;;;;;2.25;0.85;;;16.40;99.90;;;;;;6160737;23;20346;-90
2022/09/22 12:05:51;;;;;;;3.58;1.20;;;16.60;99.90;;;;;;6160278;23;20025;-91
2022/09/22 12:08:24;;;;;;;3.83;1.90;;;16.80;99.90;;;;;;6160517;23;20027;-89
2022/09/22 12:10:54;;;;;;;3.50;1.20;;;17.00;99.90;;;;;;6184943;23;20017;-90
2022/09/22 12:13:24;;;;;;;3.53;1.30;;;17.00;99.90;;;;;;6160372;23;20522;-89
2022/09/22 12:16:12;;;;;;;3.33;1.10;;;17.10;99.90;;;;;;6160331;23;20044;-90
2022/09/22 12:19:04;;;;;;;1.80;0.95;;;17.00;99.40;;;;;;6160427;23;20023;-89
2022/09/22 12:22:06;;;;;;;2.35;0.75;;;16.90;99.90;;;;;;6160397;23;20095;-89
2022/09/22 12:24:33;;;;;;;3.67;1.30;;;17.00;99.90;;;;;;6160957;23;20070;-90
2022/09/22 12:27:25;;;;;;;2.92;1.20;;;17.10;99.90;;;;;;6160219;23;20020;-89
2022/09/22 12:30:00;;;;;;;3.88;2.22;;;17.20;99.70;;;;;;6151800;23;20021;-89
2022/09/22 12:32:36;;;;;;;5.05;2.45;;;17.20;98.50;;;;;;6189414;23;20052;-90
2022/09/22 12:35:03;;;;;;;4.53;1.98;;;17.30;99.00;;;;;;6160485;22;20020;-90
2022/09/22 12:37:38;;;;;;;4.68;2.20;;;17.30;99.30;;;;;;6159765;23;20138;-89
2022/09/22 12:40:13;;;;;;;4.60;2.15;;;17.20;99.00;;;;;;6184862;23;20009;-90
2022/09/22 12:42:42;;;;;;;3.58;1.90;;;17.10;99.50;;;;;;6160283;22;20027;-90
2022/09/22 12:45:28;;;;;;;4.30;2.03;;;17.20;99.80;;;;;;6160247;23;20017;-89
2022/09/22 12:47:59;;;;;;;3.95;2.20;;;17.20;99.80;;;;;;6159971;23;20070;-89
2022/09/22 12:50:38;;;;;;;4.30;2.50;;;17.30;99.90;;;;;;6160897;23;20016;-89
2022/09/22 12:53:22;;;;;;;3.88;2.08;;;17.30;99.70;;;;;;6161221;23;20095;-89
2022/09/22 12:56:31;;;;;;;4.65;2.33;;;17.20;99.30;;;;;;6162060;22;20395;-89
2022/09/22 13:53:56;;;;;;;2.95;1.63;;;16.60;99.90;;;;;;6211421;23;20029;-89
2022/09/22 13:56:48;;;;;;;4.03;2.17;;;16.70;99.90;;;;;;6178600;23;20020;-89
2022/09/22 13:59:16;;;;;;;3.70;1.83;;;16.70;99.90;;;;;;6162296;23;20013;-90
2022/09/22 14:01:52;;;;;;;3.10;1.60;;;16.70;99.90;;;;;;6136414;23;20024;-90
2022/09/22 14:04:23;;;;;;;4.77;2.10;;;16.70;99.90;;;;;;6161161;23;20465;-90
2022/09/22 14:06:59;;;;;;;3.78;2.15;;;16.70;99.90;;;;;;6160867;23;20021;-89
2022/09/22 14:09:29;;;;;;;3.60;1.63;;;16.80;99.90;;;;;;6161960;23;20016;-89
2022/09/22 14:11:56;;;;;;;3.15;1.63;;;16.70;99.90;;;;;;6161129;23;20099;-90
2022/09/22 14:14:24;;;;;;;4.20;1.60;;;16.60;99.90;;;;;;6160887;23;20016;-89
2022/09/22 14:17:20;;;;;;;3.60;1.80;;;16.60;99.90;;;;;;6160610;23;20043;-89
2022/09/22 14:19:48;;;;;;;3.30;1.83;;;16.50;99.90;;;;;;6160942;23;20021;-89
2022/09/22 14:22:21;;;;;;;4.32;1.83;;;16.40;99.90;;;;;;6161120;22;20024;-89
2022/09/22 14:24:51;;;;;;;3.85;1.73;;;16.30;99.90;;;;;;6160850;23;20048;-89
2022/09/22 14:27:40;;;;;;;4.30;1.90;;;16.20;99.90;;;;;;6160843;23;20017;-89
2022/09/22 14:30:17;;;;;;;3.33;1.45;;;16.30;99.90;;;;;;6175858;23;20017;-89
2022/09/22 14:32:54;;;;;;;3.65;1.70;;;16.20;99.90;;;;;;6163682;23;20077;-89
2022/09/22 14:35:23;;;;;;;3.33;1.67;;;16.20;99.90;;;;;;6291404;22;20012;-89
2022/09/22 14:37:50;;;;;;;3.13;1.50;;;16.20;99.90;;;;;;6160669;23;20437;-90
2022/09/22 14:40:22;;;;;;;3.22;1.83;;;16.20;99.90;;;;;;6160866;23;20024;-90
2022/09/22 14:43:08;;;;;;;3.85;1.90;;;16.20;99.90;;;;;;6160698;23;20016;-89